Date,TemperatureHighF,TemperatureAvgF,TemperatureLowF,DewpointHighF,DewpointAvgF,DewpointLowF,HumidityHigh,HumidityAvg,HumidityLow,PressureMaxIn,PressureMinIn,WindSpeedMaxMPH,WindSpeedAvgMPH,GustSpeedMaxMPH,PrecipitationSumIn
2012-12-1,3.7,-5.1,-10.4,-0.6,-9.8,-15.5,82,80,78,29.24,29.07,0,0,2,0.00
2012-12-2,0.0,-9.2,-13.7,-4.5,-14.1,-21.6,81,79,77,29.08,28.95,0,0,0,0.00
2012-12-3,-4.1,-13.6,-21.4,-9.1,-18.7,-26.3,79,77,76,29.21,28.99,0,0,0,0.00
2012-12-4,-8.5,-16.2,-19.8,-13.6,-21.5,-25.2,78,76,75,29.20,29.11,0,0,0,0.00
2012-12-5,-9.2,-16.8,-20.9,-14.5,-22.2,-26.3,78,76,75,29.24,29.14,2,0,2,0.00
2012-12-6,-0.2,-9.1,-17.3,-4.6,-14.2,-22.7,81,78,76,29.53,29.24,0,0,0,0.00
2012-12-7,6.0,-4.1,-14.6,1.9,-8.8,-19.8,83,80,77,29.55,29.51,0,0,0,0.00
2012-12-8,21.3,11.6,-4.7,18.5,8.1,-9.4,89,86,80,29.55,28.87,22,4,22,0.00
2012-12-9,29.8,24.1,20.3,27.8,21.6,17.5,92,90,89,29.15,28.89,8,0,8,0.00
2012-12-10,28.5,26.8,25.5,26.5,24.8,23.2,92,92,91,29.39,29.15,0,0,0,0.00
2012-12-11,25.7,17.9,12.3,23.4,15.1,9.2,91,89,87,29.52,29.29,0,0,0,0.00
2012-12-12,32.1,30.3,26.7,30.3,28.4,24.7,93,93,92,28.95,28.87,0,0,0,0.00
2012-12-13,31.8,28.6,17.4,29.3,25.7,14.1,90,89,87,28.98,28.91,0,0,0,0.00
2012-12-14,19.2,16.3,11.3,16.4,13.5,8.1,89,89,87,28.91,28.78,0,0,0,0.00
2012-12-15,19.5,8.8,-9.0,16.7,5.5,-13.3,89,86,81,28.93,28.75,0,0,0,0.00
2012-12-16,-5.9,-14.0,-19.6,-10.5,-18.7,-24.7,81,79,77,29.32,28.93,0,0,0,0.00
2012-12-17,-13.1,-18.3,-21.8,-18.1,-23.4,-26.9,78,77,76,29.42,29.19,0,0,0,0.00
2012-12-18,3.9,-2.9,-15.7,0.0,-7.2,-20.9,84,82,77,29.19,29.03,0,0,0,0.00
2012-12-19,3.9,-4.3,-13.1,0.0,-8.7,-18.1,84,81,78,29.55,29.12,0,0,0,0.00
2012-12-20,8.2,-4.1,-13.9,4.3,-8.5,-18.9,84,81,78,29.74,29.55,2,0,2,0.00
2012-12-21,0.0,-16.2,-21.8,-6.0,-21.8,-27.2,75,75,75,29.73,29.71,0,0,0,0.00
2012-12-22,-8.3,-9.1,-9.7,-13.1,-14.0,-14.5,79,79,79,29.35,29.34,0,0,0,0.00
2012-12-23,7.7,3.7,-6.8,3.8,-0.3,-11.5,84,83,80,29.30,29.14,0,0,0,0.00
2012-12-24,19.2,11.9,6.4,16.1,8.0,2.0,88,84,82,29.15,29.01,0,0,0,0.00
2012-12-25,28.9,25.3,16.7,26.9,22.9,13.6,92,90,88,29.25,29.10,0,0,0,0.00
2012-12-26,29.8,25.8,20.6,27.8,23.5,17.9,92,91,90,29.09,28.90,0,0,0,0.00
2012-12-27,28.7,26.9,23.5,26.7,24.8,21.2,92,92,91,28.94,28.84,0,0,0,0.00
2012-12-28,36.3,28.9,24.0,33.7,26.8,21.8,93,92,89,29.16,29.07,13,1,13,0.11
2012-12-29,38.4,34.1,30.7,33.6,30.8,28.4,92,88,78,29.10,28.88,20,1,20,0.00
2012-12-30,38.1,36.7,35.2,35.1,33.5,31.3,91,88,86,29.00,28.53,22,4,22,0.06
2012-12-31,38.4,34.6,26.4,32.3,29.3,23.4,90,81,67,29.34,29.00,15,2,15,0.00